createdAt,value
2018-06-14T00:01:53.838Z,7.50
2018-06-14T00:04:25.160Z,8.97
2018-06-14T00:06:56.616Z,8.80
2018-06-14T00:09:27.794Z,10.00
2018-06-14T00:11:59.610Z,8.37
2018-06-14T00:14:31.007Z,12.67
2018-06-14T00:17:02.120Z,8.30
2018-06-14T00:19:33.594Z,7.33
2018-06-14T00:22:05.601Z,7.83
2018-06-14T00:24:37.234Z,7.83
2018-06-14T00:27:08.543Z,8.37
2018-06-14T00:29:40.556Z,7.40
2018-06-14T00:32:11.805Z,7.57
2018-06-14T00:34:43.649Z,7.80
2018-06-14T00:37:14.842Z,7.87
2018-06-14T00:39:46.105Z,9.33
2018-06-14T00:42:17.635Z,7.70
2018-06-14T00:44:49.116Z,8.23
2018-06-14T00:47:21.242Z,7.97
2018-06-14T00:49:53.017Z,10.20
2018-06-14T00:52:24.374Z,7.47
2018-06-14T00:54:55.635Z,7.90
2018-06-14T00:57:33.102Z,7.40
2018-06-14T01:00:04.667Z,9.23
2018-06-14T01:02:36.004Z,8.07
2018-06-14T01:05:07.476Z,7.20
2018-06-14T01:07:38.931Z,8.50
2018-06-14T01:10:10.431Z,8.40
2018-06-14T01:12:41.919Z,7.90
2018-06-14T01:15:13.244Z,8.50
2018-06-14T01:17:44.856Z,8.37
2018-06-14T01:20:16.257Z,8.33
2018-06-14T01:22:47.731Z,8.33
2018-06-14T01:25:18.859Z,8.70
2018-06-14T01:27:50.414Z,8.43
2018-06-14T01:30:21.941Z,8.83
2018-06-14T01:32:53.316Z,9.43
2018-06-14T01:35:24.761Z,12.23
2018-06-14T01:38:11.841Z,9.13
2018-06-14T01:40:43.199Z,9.90
2018-06-14T01:43:14.491Z,8.97
2018-06-14T01:45:45.832Z,9.43
2018-06-14T01:48:17.797Z,9.17
2018-06-14T01:50:49.086Z,9.03
2018-06-14T01:53:20.858Z,8.93
2018-06-14T01:55:52.176Z,9.13
2018-06-14T01:58:22.989Z,10.23
2018-06-14T02:00:54.229Z,8.97
2018-06-14T02:03:25.484Z,9.27
2018-06-14T02:05:56.847Z,8.73
2018-06-14T02:08:28.264Z,8.97
2018-06-14T02:10:59.643Z,9.23
2018-06-14T02:13:31.268Z,10.57
2018-06-14T02:16:03.203Z,8.80
2018-06-14T02:18:34.800Z,10.07
2018-06-14T02:21:06.433Z,9.87
2018-06-14T02:23:38.077Z,11.07
2018-06-14T02:26:09.415Z,10.50
2018-06-14T02:28:40.927Z,10.67
2018-06-14T02:31:12.155Z,10.90
2018-06-14T02:33:43.360Z,14.37
2018-06-14T02:36:14.836Z,11.53
2018-06-14T02:38:46.391Z,10.77
2018-06-14T02:41:17.870Z,10.83
2018-06-14T02:43:49.261Z,14.00
2018-06-14T02:46:20.740Z,11.63
2018-06-14T02:48:51.803Z,11.00
2018-06-14T02:51:23.621Z,10.80
2018-06-14T02:53:55.715Z,13.10
2018-06-14T02:56:27.247Z,12.40
2018-06-14T02:58:58.612Z,15.37
2018-06-14T03:01:30.065Z,12.23
2018-06-14T03:04:01.528Z,17.33
2018-06-14T03:06:32.976Z,11.73
2018-06-14T03:09:04.999Z,11.90
2018-06-14T03:11:36.237Z,14.07
2018-06-14T03:14:07.542Z,12.60
2018-06-14T03:16:39.412Z,13.10
2018-06-14T03:19:10.657Z,16.17
2018-06-14T03:21:42.047Z,24.40
2018-06-14T03:24:13.329Z,21.73
2018-06-14T03:26:44.712Z,23.67
2018-06-14T03:29:16.126Z,20.63
2018-06-14T03:31:47.744Z,16.30
2018-06-14T03:34:19.035Z,14.67
2018-06-14T03:36:50.520Z,15.03
2018-06-14T03:39:21.849Z,13.53
2018-06-14T03:41:53.892Z,12.83
2018-06-14T03:44:25.420Z,12.40
2018-06-14T03:46:56.791Z,13.77
2018-06-14T03:49:28.151Z,12.83
2018-06-14T03:51:59.557Z,13.03
2018-06-14T03:54:30.774Z,12.60
2018-06-14T03:57:01.891Z,11.97
2018-06-14T03:59:33.769Z,13.77
2018-06-14T04:02:05.095Z,14.30
2018-06-14T04:04:36.295Z,17.30
2018-06-14T04:07:07.703Z,14.83
2018-06-14T04:09:39.000Z,17.33
2018-06-14T04:12:10.471Z,18.83
2018-06-14T04:14:41.929Z,17.90
2018-06-14T04:17:13.268Z,14.03
2018-06-14T04:19:44.420Z,14.00
2018-06-14T04:22:15.726Z,13.33
2018-06-14T04:24:47.201Z,15.00
2018-06-14T04:27:19.347Z,14.47
2018-06-14T04:29:50.682Z,14.20
2018-06-14T04:32:22.060Z,13.03
2018-06-14T04:34:53.311Z,12.70
2018-06-14T04:37:24.717Z,15.30
2018-06-14T04:39:56.463Z,16.73
2018-06-14T04:42:28.287Z,10.63
2018-06-14T04:44:59.531Z,11.67
2018-06-14T04:47:30.784Z,10.87
2018-06-14T04:50:02.642Z,12.90
2018-06-14T04:52:34.459Z,12.20
2018-06-14T04:55:06.111Z,9.47
2018-06-14T04:57:37.664Z,10.30
2018-06-14T05:00:10.320Z,12.37
2018-06-14T05:02:41.298Z,9.77
2018-06-14T05:05:13.229Z,20.57
2018-06-14T05:07:45.020Z,16.87
2018-06-14T05:10:16.772Z,14.63
2018-06-14T05:12:48.336Z,25.27
2018-06-14T05:15:20.572Z,11.50
2018-06-14T05:17:51.936Z,10.37
2018-06-14T05:20:23.151Z,9.43
2018-06-14T05:22:54.701Z,8.73
2018-06-14T05:25:26.636Z,9.43
2018-06-14T05:27:58.413Z,10.47
2018-06-14T05:30:29.646Z,8.03
2018-06-14T05:33:00.639Z,7.70
2018-06-14T05:35:32.187Z,7.37
2018-06-14T05:38:03.700Z,9.00
2018-06-14T05:40:35.508Z,6.93
2018-06-14T05:43:06.956Z,8.10
2018-06-14T05:45:38.431Z,7.63
2018-06-14T05:48:09.692Z,11.00
2018-06-14T05:50:41.096Z,9.13
2018-06-14T05:53:12.599Z,6.97
2018-06-14T05:55:44.272Z,6.07
2018-06-14T05:58:15.665Z,6.80
2018-06-14T06:00:47.105Z,7.03
2018-06-14T06:03:18.430Z,7.73
2018-06-14T06:05:50.362Z,6.60
2018-06-14T06:08:21.703Z,5.90
2018-06-14T06:10:52.921Z,6.73
2018-06-14T06:13:24.283Z,5.97
2018-06-14T06:15:55.631Z,6.60
2018-06-14T06:18:26.870Z,7.27
2018-06-14T06:20:58.399Z,7.03
2018-06-14T06:23:30.033Z,6.07
2018-06-14T06:26:01.451Z,5.67
2018-06-14T06:28:33.192Z,8.13
2018-06-14T06:31:04.641Z,8.00
2018-06-14T06:33:36.114Z,5.97
2018-06-14T06:36:07.875Z,6.00
2018-06-14T06:38:39.326Z,5.83
2018-06-14T06:41:10.675Z,6.03
2018-06-14T06:43:41.917Z,5.20
2018-06-14T06:46:13.724Z,8.07
2018-06-14T06:48:45.244Z,8.73
2018-06-14T06:51:16.862Z,11.53
2018-06-14T06:53:48.311Z,7.57
2018-06-14T06:56:19.668Z,6.10
2018-06-14T06:58:51.156Z,6.00
2018-06-14T07:01:22.559Z,5.73
2018-06-14T07:03:54.555Z,7.10
2018-06-14T07:06:25.880Z,6.00
2018-06-14T07:08:57.510Z,9.37
2018-06-14T07:11:28.838Z,7.90
2018-06-14T07:14:00.019Z,7.80
2018-06-14T07:16:31.779Z,9.57
2018-06-14T07:19:02.956Z,16.03
2018-06-14T07:21:35.628Z,11.97
2018-06-14T07:24:07.052Z,6.50
2018-06-14T07:26:39.668Z,5.83
2018-06-14T07:29:11.031Z,5.60
2018-06-14T07:31:42.191Z,6.77
2018-06-14T07:34:13.364Z,5.60
2018-06-14T07:36:44.792Z,5.50
2018-06-14T07:39:16.206Z,9.53
2018-06-14T07:41:47.424Z,12.63
2018-06-14T07:44:18.950Z,10.50
2018-06-14T07:46:50.211Z,7.77
2018-06-14T07:49:22.193Z,5.73
2018-06-14T07:51:53.555Z,5.70
2018-06-14T07:54:25.396Z,4.53
2018-06-14T07:56:56.812Z,5.83
2018-06-14T07:59:28.005Z,5.30
2018-06-14T08:01:59.324Z,5.57
2018-06-14T08:04:30.834Z,5.13
2018-06-14T08:07:02.157Z,5.50
2018-06-14T08:09:33.770Z,5.37
2018-06-14T08:12:05.706Z,5.40
2018-06-14T08:14:37.508Z,5.43
2018-06-14T08:17:08.973Z,4.50
2018-06-14T08:19:39.749Z,5.43
2018-06-14T08:22:10.906Z,7.50
2018-06-14T08:24:42.329Z,5.30
2018-06-14T08:27:13.602Z,8.63
2018-06-14T08:29:45.003Z,5.30
2018-06-14T08:32:16.519Z,4.90
2018-06-14T08:34:47.795Z,4.97
2018-06-14T08:37:20.025Z,5.03
2018-06-14T08:39:51.534Z,7.47
2018-06-14T08:42:22.757Z,5.00
2018-06-14T08:44:54.162Z,5.77
2018-06-14T08:47:25.711Z,5.50
2018-06-14T08:49:57.056Z,4.67
2018-06-14T08:52:28.450Z,5.73
2018-06-14T08:54:59.943Z,4.40
2018-06-14T08:57:34.000Z,4.97
2018-06-14T09:00:05.396Z,4.67
2018-06-14T09:02:36.508Z,4.63
2018-06-14T09:05:08.449Z,4.40
2018-06-14T09:07:39.941Z,7.10
2018-06-14T09:10:11.377Z,4.80
2018-06-14T09:12:42.915Z,6.67
2018-06-14T09:15:14.047Z,4.87
2018-06-14T09:17:45.514Z,4.57
2018-06-14T09:20:17.357Z,5.10
2018-06-14T09:22:49.095Z,4.70
2018-06-14T09:25:20.464Z,13.80
2018-06-14T09:27:51.742Z,10.20
2018-06-14T09:30:23.058Z,7.13
2018-06-14T09:32:54.196Z,7.93
2018-06-14T09:35:26.563Z,5.20
2018-06-14T09:37:57.957Z,5.70
2018-06-14T09:40:29.246Z,5.00
2018-06-14T09:43:00.683Z,4.63
2018-06-14T09:45:32.195Z,7.43
2018-06-14T09:48:03.523Z,10.07
2018-06-14T09:50:34.693Z,4.73
2018-06-14T09:53:07.079Z,6.23
2018-06-14T09:55:38.521Z,4.67
2018-06-14T09:58:10.373Z,5.53
2018-06-14T10:00:42.118Z,5.33
2018-06-14T10:03:15.024Z,4.60
2018-06-14T10:05:46.975Z,6.37
2018-06-14T10:08:19.126Z,5.87
2018-06-14T10:10:50.822Z,4.53
2018-06-14T10:13:22.313Z,6.30
2018-06-14T10:15:53.743Z,4.53
2018-06-14T10:18:27.421Z,5.60
2018-06-14T10:20:58.549Z,9.67
2018-06-14T10:23:29.656Z,16.53
2018-06-14T10:26:01.242Z,5.30
2018-06-14T10:28:32.786Z,5.37
2018-06-14T10:31:04.151Z,4.40
2018-06-14T10:33:35.374Z,4.20
2018-06-14T10:36:07.908Z,5.23
2018-06-14T10:38:39.497Z,4.83
2018-06-14T10:41:11.139Z,5.70
2018-06-14T10:43:42.591Z,4.53
2018-06-14T10:46:13.864Z,5.43
2018-06-14T10:48:45.181Z,5.73
2018-06-14T10:51:16.647Z,6.53
2018-06-14T10:53:48.332Z,4.73
2018-06-14T10:56:19.563Z,8.07
2018-06-14T10:58:52.041Z,11.90
2018-06-14T11:01:23.704Z,8.00
2018-06-14T11:03:55.834Z,5.30
2018-06-14T11:06:27.424Z,4.97
2018-06-14T11:08:59.672Z,5.20
2018-06-14T11:11:31.059Z,4.73
2018-06-14T11:14:02.341Z,5.07
2018-06-14T11:16:33.985Z,4.80
2018-06-14T11:19:05.094Z,5.80
2018-06-14T11:21:36.308Z,7.63
2018-06-14T11:24:07.643Z,5.23
2018-06-14T11:26:39.338Z,5.53
2018-06-14T11:29:11.292Z,5.07
2018-06-14T11:31:42.913Z,4.47
2018-06-14T11:34:14.379Z,9.00
2018-06-14T11:36:45.665Z,6.10
2018-06-14T11:39:17.254Z,4.83
2018-06-14T11:41:48.982Z,4.23
2018-06-14T11:44:20.167Z,6.63
2018-06-14T11:46:51.543Z,5.90
2018-06-14T11:49:22.940Z,4.87
2018-06-14T11:51:54.850Z,5.57
2018-06-14T11:54:26.695Z,4.17
2018-06-14T11:56:58.135Z,4.33
2018-06-14T11:59:29.427Z,4.87
2018-06-14T12:02:01.188Z,6.23
2018-06-14T12:04:32.713Z,5.23
2018-06-14T12:07:04.028Z,4.63
2018-06-14T12:09:35.301Z,5.43
2018-06-14T12:12:06.660Z,5.40
2018-06-14T12:14:37.896Z,4.43
2018-06-14T12:17:09.631Z,4.80
2018-06-14T12:19:41.040Z,5.20
2018-06-14T12:22:12.311Z,5.03
2018-06-14T12:24:44.134Z,5.20
2018-06-14T12:27:15.444Z,4.77
2018-06-14T12:29:46.933Z,7.07
2018-06-14T12:32:19.216Z,4.77
2018-06-14T12:34:51.092Z,4.47
2018-06-14T12:37:22.510Z,5.07
2018-06-14T12:39:53.672Z,4.63
2018-06-14T12:42:25.632Z,4.63
2018-06-14T12:44:57.225Z,5.10
2018-06-14T12:47:29.183Z,4.93
2018-06-14T12:50:01.368Z,4.73
2018-06-14T12:52:32.835Z,4.27
2018-06-14T12:55:04.071Z,4.27
2018-06-14T12:57:35.742Z,5.10
2018-06-14T13:00:08.186Z,4.73
2018-06-14T13:02:39.384Z,5.00
2018-06-14T13:05:11.575Z,4.33
2018-06-14T13:07:43.342Z,5.33
2018-06-14T13:10:14.790Z,5.80
2018-06-14T13:12:46.244Z,4.40
2018-06-14T13:15:17.604Z,6.03
2018-06-14T13:17:48.975Z,4.23
2018-06-14T13:20:20.382Z,5.10
2018-06-14T13:22:51.809Z,5.87
2018-06-14T13:25:23.336Z,4.67
2018-06-14T13:27:54.783Z,4.27
2018-06-14T13:30:26.210Z,5.60
2018-06-14T13:32:57.433Z,4.70
2018-06-14T13:35:28.910Z,4.30
2018-06-14T13:38:00.431Z,4.70
2018-06-14T13:40:32.128Z,5.40
2018-06-14T13:43:03.547Z,4.40
2018-06-14T13:45:34.871Z,4.50
2018-06-14T13:48:06.229Z,4.47
2018-06-14T13:50:37.467Z,4.13
2018-06-14T13:53:09.931Z,4.67
2018-06-14T13:55:41.540Z,5.53
2018-06-14T13:58:12.802Z,4.83
2018-06-14T14:00:44.132Z,5.47
2018-06-14T14:03:15.772Z,4.37
2018-06-14T14:05:47.189Z,7.30
2018-06-14T14:08:18.659Z,5.00
2018-06-14T14:10:50.102Z,6.80
2018-06-14T14:13:21.482Z,4.60
2018-06-14T14:15:52.543Z,4.77
2018-06-14T14:18:24.056Z,4.77
2018-06-14T14:20:56.619Z,4.93
2018-06-14T14:23:28.451Z,6.87
2018-06-14T14:26:00.041Z,5.50
2018-06-14T14:28:32.920Z,5.73
2018-06-14T14:31:04.476Z,8.57
2018-06-14T14:33:35.968Z,4.50
2018-06-14T14:36:07.840Z,4.87
2018-06-14T14:38:39.472Z,5.23
2018-06-14T14:41:10.838Z,4.63
2018-06-14T14:43:42.221Z,5.53
2018-06-14T14:46:14.401Z,5.07
2018-06-14T14:48:45.605Z,4.50
2018-06-14T14:51:16.861Z,9.07
2018-06-14T14:53:49.683Z,4.63
2018-06-14T14:56:21.001Z,4.97
2018-06-14T14:58:52.973Z,5.30
2018-06-14T15:01:24.273Z,5.25
2018-06-14T15:03:55.632Z,13.00
2018-06-14T15:06:26.993Z,4.93
2018-06-14T15:08:58.566Z,5.23
2018-06-14T15:11:29.834Z,4.83
2018-06-14T15:14:01.647Z,5.97
2018-06-14T15:16:32.984Z,5.27
2018-06-14T15:19:03.964Z,5.57
2018-06-14T15:21:36.088Z,13.83
2018-06-14T15:24:07.686Z,19.27
2018-06-14T15:26:39.567Z,23.63
2018-06-14T15:29:10.988Z,12.50
2018-06-14T15:31:42.207Z,8.80
2018-06-14T15:34:14.034Z,11.93
2018-06-14T15:36:45.435Z,6.37
2018-06-14T15:39:17.333Z,6.50
2018-06-14T15:41:48.922Z,8.03
2018-06-14T15:44:20.258Z,9.43
2018-06-14T15:46:51.596Z,8.80
2018-06-14T15:49:23.211Z,6.90
2018-06-14T15:51:54.887Z,5.37
2018-06-14T15:54:26.757Z,4.90
2018-06-14T15:56:58.199Z,5.67
2018-06-14T15:59:29.761Z,7.77
2018-06-14T16:02:01.162Z,6.63
2018-06-14T16:04:32.774Z,6.23
2018-06-14T16:07:04.234Z,6.47
2018-06-14T16:09:35.483Z,4.93
2018-06-14T16:12:07.469Z,9.10
2018-06-14T16:14:39.116Z,5.53
2018-06-14T16:17:10.608Z,5.10
2018-06-14T16:19:42.016Z,4.70
2018-06-14T16:22:13.509Z,5.50
2018-06-14T16:24:44.950Z,5.83
2018-06-14T16:27:16.258Z,5.73
2018-06-14T16:29:47.688Z,5.80
2018-06-14T16:32:19.184Z,5.70
2018-06-14T16:34:50.815Z,5.10
2018-06-14T16:37:22.150Z,5.30
2018-06-14T16:39:53.464Z,5.47
2018-06-14T16:42:24.847Z,4.80
2018-06-14T16:44:56.621Z,6.10
2018-06-14T16:47:28.881Z,6.03
2018-06-14T16:50:00.599Z,7.10
2018-06-14T16:52:32.197Z,6.00
2018-06-14T16:55:03.473Z,6.00
2018-06-14T16:57:34.859Z,5.23
2018-06-14T17:00:07.280Z,5.83
2018-06-14T17:02:38.428Z,9.00
2018-06-14T17:05:09.881Z,5.73
2018-06-14T17:07:41.199Z,7.23
2018-06-14T17:10:12.663Z,6.93
2018-06-14T17:12:44.129Z,5.57
2018-06-14T17:15:15.542Z,5.67
2018-06-14T17:17:47.067Z,5.67
2018-06-14T17:20:18.355Z,6.57
2018-06-14T17:22:49.892Z,6.07
2018-06-14T17:25:21.286Z,6.67
2018-06-14T17:27:52.744Z,5.93
2018-06-14T17:30:24.587Z,5.47
2018-06-14T17:32:55.727Z,6.17
2018-06-14T17:35:28.588Z,5.47
2018-06-14T17:38:01.232Z,7.77
2018-06-14T17:40:32.463Z,5.00
2018-06-14T17:43:05.177Z,5.73
2018-06-14T17:45:36.737Z,5.47
2018-06-14T17:48:08.101Z,5.40
2018-06-14T17:50:39.567Z,5.30
2018-06-14T17:53:11.035Z,7.03
2018-06-14T17:55:42.569Z,8.53
2018-06-14T17:58:14.313Z,5.27
2018-06-14T18:00:45.765Z,5.63
2018-06-14T18:03:17.167Z,6.33
2018-06-14T18:05:49.342Z,5.33
2018-06-14T18:08:20.930Z,7.37
2018-06-14T18:10:52.408Z,6.17
2018-06-14T18:13:24.449Z,6.17
2018-06-14T18:15:55.920Z,6.03
2018-06-14T18:18:27.203Z,5.33
2018-06-14T18:20:58.936Z,7.17
2018-06-14T18:23:30.588Z,6.07
2018-06-14T18:26:02.837Z,5.83
2018-06-14T18:28:34.181Z,6.00
2018-06-14T18:31:05.422Z,5.80
2018-06-14T18:33:37.112Z,6.50
2018-06-14T18:36:08.884Z,5.83
2018-06-14T18:38:40.352Z,7.70
2018-06-14T18:41:12.315Z,5.45
2018-06-14T18:43:43.635Z,6.27
2018-06-14T18:46:14.864Z,5.83
2018-06-14T18:48:46.485Z,6.00
2018-06-14T18:51:18.072Z,6.00
2018-06-14T18:53:49.753Z,7.27
2018-06-14T18:56:21.248Z,5.90
2018-06-14T18:58:53.112Z,6.73
2018-06-14T19:01:25.199Z,5.57
2018-06-14T19:03:56.748Z,5.50
2018-06-14T19:06:28.147Z,7.50
2018-06-14T19:08:59.414Z,6.80
2018-06-14T19:11:38.743Z,7.13
2018-06-14T19:14:10.283Z,6.27
2018-06-14T19:16:41.620Z,5.70
2018-06-14T19:19:12.955Z,5.60
2018-06-14T19:21:44.326Z,6.83
2018-06-14T19:24:16.973Z,5.70
2018-06-14T19:26:49.128Z,5.37
2018-06-14T19:29:20.565Z,6.87
2018-06-14T19:31:51.440Z,5.97
2018-06-14T19:34:23.291Z,5.83
2018-06-14T19:36:55.694Z,5.53
2018-06-14T19:39:27.611Z,5.47
2018-06-14T19:41:59.364Z,5.40
2018-06-14T19:44:30.646Z,6.00
2018-06-14T19:47:01.868Z,5.70
2018-06-14T19:49:33.281Z,5.57
2018-06-14T19:52:04.987Z,6.80
2018-06-14T19:54:36.421Z,8.30
2018-06-14T19:57:07.846Z,6.80
2018-06-14T19:59:39.340Z,5.27
2018-06-14T20:02:10.911Z,5.07
2018-06-14T20:04:42.332Z,5.47
2018-06-14T20:07:13.756Z,6.50
2018-06-14T20:09:44.947Z,5.97
2018-06-14T20:12:16.332Z,6.27
2018-06-14T20:14:47.646Z,5.57
2018-06-14T20:17:19.106Z,5.70
2018-06-14T20:19:50.868Z,6.10
2018-06-14T20:22:22.393Z,5.37
2018-06-14T20:24:53.923Z,4.87
2018-06-14T20:27:25.412Z,10.00
2018-06-14T20:29:56.957Z,6.03
2018-06-14T20:32:28.497Z,5.10
2018-06-14T20:35:00.080Z,6.13
2018-06-14T20:37:31.633Z,5.23
2018-06-14T20:40:03.465Z,4.73
2018-06-14T20:42:35.206Z,4.40
2018-06-14T20:45:06.628Z,5.40
2018-06-14T20:47:37.915Z,5.37
2018-06-14T20:50:09.718Z,4.87
2018-06-14T20:52:41.831Z,4.47
2018-06-14T20:55:13.337Z,4.70
2018-06-14T20:57:44.964Z,5.47
2018-06-14T21:00:17.382Z,8.23
2018-06-14T21:02:49.048Z,7.30
2018-06-14T21:05:20.671Z,5.00
2018-06-14T21:07:52.181Z,4.50
2018-06-14T21:10:24.076Z,4.73
2018-06-14T21:12:55.477Z,4.23
2018-06-14T21:15:26.853Z,4.20
2018-06-14T21:17:58.238Z,4.00
2018-06-14T21:20:30.006Z,4.63
2018-06-14T21:23:01.305Z,4.03
2018-06-14T21:25:32.948Z,6.27
2018-06-14T21:28:04.994Z,3.80
2018-06-14T21:30:36.942Z,4.80
2018-06-14T21:33:08.413Z,24.23
2018-06-14T21:35:39.700Z,3.90
2018-06-14T21:38:11.128Z,3.77
2018-06-14T21:40:42.559Z,4.00
2018-06-14T21:43:14.399Z,5.17
2018-06-14T21:45:45.603Z,4.57
2018-06-14T21:48:16.834Z,4.53
2018-06-14T21:50:48.132Z,4.50
2018-06-14T21:53:19.467Z,7.30
2018-06-14T21:55:50.999Z,3.40
2018-06-14T21:58:22.447Z,4.20
2018-06-14T22:00:53.796Z,3.70
2018-06-14T22:03:30.284Z,4.33
2018-06-14T22:06:01.772Z,3.87
2018-06-14T22:08:33.324Z,7.77
2018-06-14T22:11:06.157Z,6.73
2018-06-14T22:13:37.452Z,3.63
2018-06-14T22:16:09.340Z,4.67
2018-06-14T22:18:40.745Z,4.33
2018-06-14T22:21:12.115Z,3.67
2018-06-14T22:23:43.858Z,5.00
2018-06-14T22:26:15.501Z,5.87
2018-06-14T22:28:47.255Z,3.93
2018-06-14T22:31:18.580Z,6.47
2018-06-14T22:34:05.528Z,4.50
2018-06-14T22:36:37.092Z,6.33
2018-06-14T22:39:09.135Z,6.87
2018-06-14T22:41:40.930Z,4.93
2018-06-14T22:44:12.319Z,5.13
2018-06-14T22:46:44.388Z,4.70
2018-06-14T22:49:15.629Z,7.13
2018-06-14T22:53:02.251Z,5.63
2018-06-14T22:55:33.647Z,5.50
2018-06-14T22:58:04.924Z,7.53
2018-06-14T23:01:52.636Z,5.43
2018-06-14T23:04:27.936Z,7.43
2018-06-14T23:06:59.311Z,5.40
2018-06-14T23:10:44.959Z,9.57
2018-06-14T23:13:17.584Z,7.23
2018-06-14T23:15:49.743Z,5.73
2018-06-14T23:18:21.192Z,5.80
2018-06-14T23:20:52.524Z,6.57
2018-06-14T23:23:24.730Z,9.00
2018-06-14T23:25:56.103Z,5.20
2018-06-14T23:28:27.761Z,6.00
2018-06-14T23:30:59.923Z,6.67
2018-06-14T23:33:31.319Z,8.80
2018-06-14T23:36:03.281Z,5.90
2018-06-14T23:38:34.915Z,7.17
2018-06-14T23:41:06.901Z,11.63
2018-06-14T23:43:38.303Z,7.17
2018-06-14T23:46:09.689Z,6.70
2018-06-14T23:48:40.930Z,6.30
2018-06-14T23:51:13.089Z,6.10
2018-06-14T23:53:44.420Z,6.67
2018-06-14T23:56:15.697Z,5.87
2018-06-14T23:58:46.908Z,6.23
